Time;durP1;ratioP1;P1;durP2;ratioP2;P2;SDS_P1;SDS_P2;PMS_P1;PMS_P2;Temp;Humidity;BMP_temperature;BMP_pressure;BME280_temperature;BME280_humidity;BME280_pressure;Samples;Min_cycle;Max_cycle;Signal;HPM_P1;HPM_P2
2022/07/04 00:01:01;;;;;;;1.42;1.15;;;;;;;22.32;50.59;99922.94;5049368;28;20079;-86
2022/07/04 00:03:27;;;;;;;1.60;1.17;;;;;;;22.26;50.44;99903.56;5049348;28;20430;-87
2022/07/04 00:05:52;;;;;;;3.47;1.00;;;;;;;22.42;50.31;99920.53;5050289;28;20032;-86
2022/07/04 00:08:18;;;;;;;1.83;1.45;;;;;;;22.29;51.46;99904.28;5049122;28;20033;-86
2022/07/04 00:10:43;;;;;;;1.25;1.08;;;;;;;22.27;50.64;99908.84;5048404;28;20036;-87
2022/07/04 00:13:09;;;;;;;3.88;1.35;;;;;;;22.30;50.58;99908.69;5048466;28;20550;-86
2022/07/04 00:15:34;;;;;;;1.05;0.95;;;;;;;22.33;50.40;99905.81;5048458;28;20153;-87
2022/07/04 00:18:02;;;;;;;0.80;0.63;;;;;;;22.28;50.71;99907.06;5048152;28;20499;-86
2022/07/04 00:20:27;;;;;;;1.98;1.13;;;;;;;22.16;50.82;99890.69;5049767;28;20035;-87
2022/07/04 00:22:53;;;;;;;1.48;0.88;;;;;;;22.21;50.76;99903.84;5049482;28;20616;-89
2022/07/04 00:25:18;;;;;;;2.13;1.58;;;;;;;22.32;50.61;99912.19;5048308;28;20061;-88
2022/07/04 00:27:44;;;;;;;1.50;0.90;;;;;;;22.25;52.63;99880.38;5048478;28;20037;-88
2022/07/04 00:30:10;;;;;;;1.17;0.95;;;;;;;22.21;52.36;99882.34;5031061;28;20044;-88
2022/07/04 00:32:35;;;;;;;3.90;1.77;;;;;;;22.25;51.72;99901.88;5049406;28;20041;-88
2022/07/04 00:35:01;;;;;;;1.27;0.98;;;;;;;22.23;51.62;99896.59;5048423;28;20534;-87
2022/07/04 00:37:27;;;;;;;2.00;1.05;;;;;;;22.16;51.90;99881.78;5049007;28;20035;-88
2022/07/04 00:39:52;;;;;;;3.28;1.63;;;;;;;22.23;52.77;99891.22;5049320;28;20043;-90
2022/07/04 00:42:18;;;;;;;1.60;1.50;;;;;;;22.20;53.12;99893.19;5048256;28;20419;-90
2022/07/04 00:44:43;;;;;;;1.73;1.13;;;;;;;22.13;53.93;99882.81;5030490;28;20410;-88
2022/07/04 00:47:09;;;;;;;0.93;0.75;;;;;;;22.09;53.35;99881.28;5048572;28;20061;-88
2022/07/04 00:49:35;;;;;;;3.67;1.50;;;;;;;22.01;53.22;99845.94;5048729;28;20029;-88
2022/07/04 00:52:01;;;;;;;4.68;1.17;;;;;;;22.17;53.40;99879.00;5048828;28;20072;-86
2022/07/04 00:54:29;;;;;;;3.78;2.35;;;;;;;22.05;53.25;99860.94;5047619;28;20083;-86
2022/07/04 00:56:56;;;;;;;3.30;0.93;;;;;;;21.98;53.29;99867.63;5049129;28;20483;-87
2022/07/04 00:59:22;;;;;;;1.15;0.85;;;;;;;21.72;54.27;99845.88;5030138;28;20094;-88
2022/07/04 01:01:48;;;;;;;1.27;0.75;;;;;;;21.86;54.21;99861.19;5048451;28;20036;-87
2022/07/04 01:04:14;;;;;;;1.52;0.85;;;;;;;21.78;53.89;99839.28;5048627;28;20535;-86
2022/07/04 01:06:39;;;;;;;1.65;0.90;;;;;;;21.94;53.92;99883.06;5048380;28;20044;-86
2022/07/04 01:09:05;;;;;;;1.73;1.33;;;;;;;21.80;55.00;99859.72;5048518;28;20033;-86
2022/07/04 01:11:30;;;;;;;1.92;1.27;;;;;;;21.63;56.90;99860.69;5048328;28;20075;-87
2022/07/04 01:13:57;;;;;;;1.65;1.02;;;;;;;21.53;57.00;99855.97;5047559;28;20083;-87
2022/07/04 01:16:25;;;;;;;1.55;0.82;;;;;;;21.66;56.36;99878.47;5048597;28;20048;-88
2022/07/04 01:18:51;;;;;;;2.92;1.63;;;;;;;21.34;56.61;99823.94;5052286;28;20048;-88
2022/07/04 01:21:18;;;;;;;1.45;1.17;;;;;;;21.31;57.24;99853.63;5030212;28;20109;-87
2022/07/04 01:23:44;;;;;;;1.67;1.00;;;;;;;21.10;57.17;99827.03;5030168;28;20426;-90
2022/07/04 01:26:09;;;;;;;2.63;1.65;;;;;;;21.18;56.20;99850.75;5047416;28;20025;-88
2022/07/04 01:28:35;;;;;;;2.35;1.33;;;;;;;21.11;57.23;99875.22;5047082;28;20558;-88
2022/07/04 01:31:01;;;;;;;1.55;1.15;;;;;;;20.69;57.98;99808.78;5047845;28;20048;-88
2022/07/04 01:33:26;;;;;;;1.95;0.88;;;;;;;20.78;58.03;99820.84;5047839;28;20037;-90
2022/07/04 01:35:53;;;;;;;1.88;1.65;;;;;;;21.08;58.84;99866.50;5047016;28;20036;-88
2022/07/04 01:38:18;;;;;;;2.17;1.58;;;;;;;21.27;57.93;99872.56;5029724;28;20140;-88
2022/07/04 01:40:44;;;;;;;2.15;1.20;;;;;;;21.09;57.62;99822.66;5046320;28;20107;-88
2022/07/04 01:43:09;;;;;;;3.78;1.80;;;;;;;21.14;56.57;99828.59;5046761;28;20025;-90
2022/07/04 01:45:37;;;;;;;3.85;2.33;;;;;;;21.24;56.81;99850.41;5029441;28;20476;-88
2022/07/04 01:48:07;;;;;;;1.10;0.80;;;;;;;21.18;56.40;99834.66;5028053;28;20430;-87
2022/07/04 01:50:33;;;;;;;2.97;1.27;;;;;;;21.05;56.39;99816.59;5047690;28;20025;-88
2022/07/04 01:52:59;;;;;;;2.60;1.35;;;;;;;21.34;56.80;99848.06;5047200;28;20090;-89
2022/07/04 01:55:25;;;;;;;1.95;1.30;;;;;;;21.19;56.48;99804.22;5047157;28;20028;-89
2022/07/04 01:57:50;;;;;;;1.33;1.15;;;;;;;21.28;56.54;99825.13;5028503;28;20513;-88
2022/07/04 02:03:00;;;;;;;3.00;1.20;;;;;;;21.30;56.36;99858.09;5047209;28;20131;-89
2022/07/04 02:05:26;;;;;;;4.28;1.85;;;;;;;20.99;56.69;99845.56;5046730;28;20115;-88
2022/07/04 02:07:51;;;;;;;2.00;0.88;;;;;;;20.84;56.93;99828.53;5046906;28;20119;-88
2022/07/04 02:10:17;;;;;;;2.30;1.10;;;;;;;20.78;57.61;99845.81;5046325;28;20083;-88
2022/07/04 02:13:01;;;;;;;1.40;1.25;;;;;;;20.45;57.64;99829.72;5028472;28;20155;-88
2022/07/04 02:15:37;;;;;;;2.08;1.20;;;;;;;20.27;57.85;99829.75;5046436;28;20598;-87
2022/07/04 02:18:05;;;;;;;2.15;1.92;;;;;;;20.26;57.84;99833.38;5046157;28;20457;-88
2022/07/04 02:20:31;;;;;;;2.30;1.05;;;;;;;20.01;59.05;99829.31;5046448;28;20040;-87
2022/07/04 02:22:56;;;;;;;1.60;1.10;;;;;;;19.91;59.50;99837.88;5029454;28;20033;-89
2022/07/04 02:25:22;;;;;;;1.13;1.00;;;;;;;20.17;58.91;99868.66;5047052;28;20561;-88
2022/07/04 02:27:48;;;;;;;4.05;2.65;;;;;;;20.31;59.41;99874.19;5046870;28;20051;-90
2022/07/04 02:30:13;;;;;;;2.50;1.63;;;;;;;20.25;59.85;99861.13;5028109;28;20095;-88
2022/07/04 02:32:39;;;;;;;2.13;1.30;;;;;;;20.33;60.15;99884.81;5046201;28;20025;-89
2022/07/04 02:35:07;;;;;;;1.58;0.90;;;;;;;20.07;60.61;99851.38;5046662;28;20722;-89
2022/07/04 02:37:32;;;;;;;3.65;1.85;;;;;;;20.02;61.12;99859.63;5028894;28;20509;-89
2022/07/04 02:39:58;;;;;;;1.80;1.58;;;;;;;20.12;60.97;99884.13;5029232;28;20033;-90
2022/07/04 02:42:24;;;;;;;2.53;1.75;;;;;;;20.07;60.76;99879.00;5028726;28;20774;-93
2022/07/04 02:44:49;;;;;;;2.08;1.33;;;;;;;19.76;61.83;99860.94;5027050;28;20423;-90
2022/07/04 02:47:15;;;;;;;1.20;0.95;;;;;;;19.97;61.82;99893.78;5027839;28;20036;-91
2022/07/04 02:49:41;;;;;;;2.00;1.23;;;;;;;20.03;61.66;99891.69;5046926;28;20044;-89
2022/07/04 02:52:07;;;;;;;1.48;1.13;;;;;;;20.24;60.87;99888.84;5046990;28;20710;-87
2022/07/04 02:54:33;;;;;;;2.20;1.63;;;;;;;20.17;61.35;99879.38;5028537;28;20434;-92
2022/07/04 02:56:58;;;;;;;2.67;1.40;;;;;;;20.07;61.67;99889.72;5028680;28;20033;-92
2022/07/04 02:59:23;;;;;;;2.78;1.40;;;;;;;20.04;61.90;99873.81;5034479;28;20181;-90
2022/07/04 03:01:49;;;;;;;3.22;2.00;;;;;;;20.11;61.81;99895.75;5052972;28;20021;-93
2022/07/04 03:04:14;;;;;;;2.67;1.55;;;;;;;20.23;61.28;99905.84;5053161;28;20487;-88
2022/07/04 03:06:42;;;;;;;1.88;1.20;;;;;;;20.10;61.41;99889.56;5034357;28;20041;-87
2022/07/04 03:09:08;;;;;;;2.50;1.90;;;;;;;19.98;61.14;99871.44;5051555;28;20036;-85
2022/07/04 03:11:34;;;;;;;1.20;0.90;;;;;;;20.11;61.15;99868.97;5036257;28;20049;-91
2022/07/04 03:13:59;;;;;;;1.10;0.98;;;;;;;20.06;61.16;99858.50;5015194;28;20053;-93
2022/07/04 03:16:25;;;;;;;2.92;1.98;;;;;;;20.13;61.79;99904.59;5031194;28;20674;-91
2022/07/04 03:18:50;;;;;;;2.60;1.38;;;;;;;20.06;61.60;99896.00;5026099;28;20435;-90
2022/07/04 03:21:16;;;;;;;2.33;1.80;;;;;;;20.29;62.11;99920.75;5023062;28;20128;-94
2022/07/04 03:23:41;;;;;;;2.33;1.40;;;;;;;20.13;62.16;99899.25;5015896;28;20110;-92
2022/07/04 03:26:07;;;;;;;1.83;1.50;;;;;;;20.33;62.13;99906.25;5032875;28;20033;-87
2022/07/04 03:28:32;;;;;;;5.65;2.53;;;;;;;20.34;61.91;99894.56;5027128;28;20500;-91
2022/07/04 03:31:00;;;;;;;2.90;1.67;;;;;;;20.58;61.04;99912.03;5028405;28;20037;-89
2022/07/04 03:33:25;;;;;;;2.45;1.80;;;;;;;20.24;60.49;99859.38;5014636;28;20069;-90
2022/07/04 03:35:51;;;;;;;3.28;1.65;;;;;;;20.46;60.90;99911.81;5033312;28;20563;-92
2022/07/04 03:38:16;;;;;;;4.15;2.10;;;;;;;20.33;61.07;99900.91;5015329;28;20072;-88
2022/07/04 03:40:42;;;;;;;4.05;2.65;;;;;;;20.14;60.90;99895.59;5031445;28;20484;-93
2022/07/04 03:43:07;;;;;;;2.55;1.70;;;;;;;20.25;60.35;99892.38;5034784;28;20116;-91
2022/07/04 03:45:34;;;;;;;2.80;1.80;;;;;;;20.33;60.49;99863.41;5036344;28;20040;-92
2022/07/04 03:48:02;;;;;;;4.50;1.70;;;;;;;20.61;59.80;99870.81;5033424;28;20029;-90
2022/07/04 03:50:27;;;;;;;2.80;2.17;;;;;;;20.87;58.76;99874.78;5031633;28;20116;-90
2022/07/04 03:52:53;;;;;;;3.55;2.63;;;;;;;21.16;58.04;99909.84;5032344;28;20141;-90
2022/07/04 03:55:18;;;;;;;3.28;2.03;;;;;;;21.26;56.62;99900.34;5030859;28;20111;-88
2022/07/04 03:57:43;;;;;;;4.35;1.77;;;;;;;21.31;56.50;99889.34;5031485;28;20045;-87
2022/07/04 04:00:10;;;;;;;2.63;1.67;;;;;;;21.40;56.04;99870.03;5032219;28;20052;-86
2022/07/04 04:02:36;;;;;;;3.33;1.92;;;;;;;21.58;56.45;99884.28;5031135;28;20041;-85
2022/07/04 04:07:47;;;;;;;4.03;2.38;;;;;;;21.59;55.34;99888.66;5032160;28;20052;-84
2022/07/04 04:10:13;;;;;;;2.65;2.42;;;;;;;21.56;56.55;99904.94;5027306;28;20042;-84
2022/07/04 04:12:38;;;;;;;3.67;2.17;;;;;;;21.76;56.89;99885.00;5029214;28;20037;-85
2022/07/04 04:15:04;;;;;;;7.00;2.17;;;;;;;21.61;56.96;99857.25;5016637;28;20144;-86
2022/07/04 04:17:29;;;;;;;4.40;2.10;;;;;;;21.86;55.70;99893.41;5030086;28;20036;-85
2022/07/04 04:19:55;;;;;;;3.90;2.00;;;;;;;22.06;56.38;99892.22;5029065;28;20247;-86
2022/07/04 04:22:20;;;;;;;2.85;1.60;;;;;;;21.68;57.34;99863.13;5029057;28;20104;-85
2022/07/04 04:24:46;;;;;;;4.50;2.60;;;;;;;21.75;57.07;99855.56;5029631;28;20056;-87
2022/07/04 04:27:12;;;;;;;4.68;2.00;;;;;;;21.94;57.40;99887.56;5027211;28;20041;-86
2022/07/04 04:29:38;;;;;;;8.40;2.60;;;;;;;21.84;56.12;99889.91;5009807;28;20033;-85
2022/07/04 04:32:03;;;;;;;5.43;2.92;;;;;;;21.90;56.50;99902.13;5019882;28;20033;-85
2022/07/04 04:34:29;;;;;;;6.55;3.22;;;;;;;21.88;56.77;99902.22;5028107;28;20567;-84
2022/07/04 04:36:54;;;;;;;2.55;1.60;;;;;;;21.64;57.57;99891.06;5025644;28;20041;-84
2022/07/04 04:39:20;;;;;;;2.60;1.98;;;;;;;21.45;57.99;99888.56;5028998;28;20060;-84
2022/07/04 04:41:45;;;;;;;2.15;1.73;;;;;;;21.75;58.55;99877.03;5028239;28;20420;-85
2022/07/04 04:44:11;;;;;;;2.97;1.70;;;;;;;22.17;56.88;99905.88;5043829;28;20103;-84
2022/07/04 04:46:36;;;;;;;2.45;1.85;;;;;;;22.07;56.79;99879.66;5028596;28;20048;-85
2022/07/04 04:49:02;;;;;;;3.28;1.80;;;;;;;22.37;56.45;99882.34;5029139;28;20840;-84
2022/07/04 04:51:27;;;;;;;3.90;1.70;;;;;;;22.57;55.54;99881.13;5028385;28;20487;-85
2022/07/04 04:53:53;;;;;;;2.92;1.80;;;;;;;22.96;54.96;99887.63;5028647;28;20033;-87
2022/07/04 04:56:18;;;;;;;2.58;1.65;;;;;;;23.15;53.72;99897.25;5028642;28;20044;-85
2022/07/04 04:58:43;;;;;;;3.70;2.20;;;;;;;23.40;53.62;99921.63;5027632;28;20033;-86
2022/07/04 05:01:09;;;;;;;3.60;2.05;;;;;;;23.58;52.46;99908.78;5028649;28;20538;-86
2022/07/04 05:03:34;;;;;;;2.95;2.45;;;;;;;23.15;52.57;99902.63;5026473;28;20138;-86
2022/07/04 05:06:00;;;;;;;2.28;1.50;;;;;;;22.96;51.88;99881.41;5028156;28;20061;-86
2022/07/04 05:08:25;;;;;;;10.63;2.78;;;;;;;23.05;53.32;99907.72;5027073;28;20038;-87
2022/07/04 05:10:52;;;;;;;2.15;1.20;;;;;;;23.25;51.67;99901.09;5027366;28;20466;-85
2022/07/04 05:13:18;;;;;;;3.50;2.20;;;;;;;23.46;52.22;99881.81;5026279;28;20033;-87
2022/07/04 05:15:43;;;;;;;2.47;1.45;;;;;;;23.46;50.18;99860.28;5046897;28;20111;-86
2022/07/04 05:18:09;;;;;;;2.42;1.58;;;;;;;24.02;48.81;99882.56;5047950;28;20474;-86
2022/07/04 05:20:34;;;;;;;1.88;1.30;;;;;;;24.20;46.35;99880.44;5047870;28;20025;-87
2022/07/04 05:23:00;;;;;;;2.83;1.98;;;;;;;24.22;47.62;99899.19;5047558;28;20040;-87
2022/07/04 05:25:26;;;;;;;35.28;2.65;;;;;;;24.27;48.01;99889.81;5047988;28;20037;-87
2022/07/04 05:27:51;;;;;;;2.97;1.98;;;;;;;23.91;45.80;99863.56;5047706;28;20418;-86
2022/07/04 05:30:17;;;;;;;4.25;2.25;;;;;;;24.27;46.86;99906.00;5048376;28;20033;-87
2022/07/04 05:32:42;;;;;;;3.55;2.38;;;;;;;24.33;47.03;99885.84;5048576;28;20862;-87
2022/07/04 05:35:09;;;;;;;5.03;3.17;;;;;;;24.73;47.30;99877.69;5047270;28;20550;-86
2022/07/04 05:37:35;;;;;;;1.85;1.50;;;;;;;25.30;45.85;99891.63;5029853;28;20139;-87
2022/07/04 05:40:01;;;;;;;1.90;1.42;;;;;;;25.56;45.59;99862.69;5047432;28;20095;-87
2022/07/04 05:42:27;;;;;;;2.78;1.83;;;;;;;25.97;44.23;99858.72;5029365;28;20040;-87
2022/07/04 05:44:53;;;;;;;3.40;2.08;;;;;;;26.30;43.28;99892.25;5047149;28;20475;-86
2022/07/04 05:47:19;;;;;;;3.25;1.95;;;;;;;26.15;43.10;99882.63;5047674;28;20056;-87
2022/07/04 05:49:44;;;;;;;3.63;2.03;;;;;;;25.80;43.51;99868.09;5047898;28;20031;-87
2022/07/04 05:52:10;;;;;;;2.58;1.48;;;;;;;26.65;41.30;99896.75;5047747;28;20032;-87
2022/07/04 05:54:35;;;;;;;4.80;1.42;;;;;;;26.37;40.68;99866.47;5047480;28;20563;-88
2022/07/04 05:57:01;;;;;;;24.10;1.83;;;;;;;25.87;38.98;99863.97;5047881;28;20029;-86
2022/07/04 05:59:26;;;;;;;2.65;1.55;;;;;;;25.94;42.02;99872.44;5047251;28;20036;-87
2022/07/04 06:01:52;;;;;;;6.65;2.72;;;;;;;26.20;39.45;99886.69;5047697;28;20971;-88
2022/07/04 06:04:17;;;;;;;1.95;1.15;;;;;;;26.66;40.53;99879.53;5028467;28;20036;-87
2022/07/04 06:06:43;;;;;;;2.45;1.55;;;;;;;26.74;40.12;99881.63;5029484;28;20435;-87
2022/07/04 06:09:08;;;;;;;4.38;1.80;;;;;;;26.92;38.21;99880.16;5046212;28;20044;-87
2022/07/04 06:11:34;;;;;;;1.88;1.50;;;;;;;26.86;39.41;99879.78;5047473;28;20040;-86
2022/07/04 06:14:00;;;;;;;2.33;1.27;;;;;;;26.86;37.50;99853.59;5046540;28;20443;-87
2022/07/04 06:16:26;;;;;;;2.25;1.80;;;;;;;27.09;38.06;99876.09;5047311;28;20076;-86
2022/07/04 06:18:51;;;;;;;2.95;1.50;;;;;;;27.18;37.39;99857.38;5028816;28;20546;-86
2022/07/04 06:21:17;;;;;;;1.88;1.23;;;;;;;27.10;36.97;99848.03;5047924;28;20484;-87
2022/07/04 06:23:42;;;;;;;1.95;1.25;;;;;;;27.25;36.96;99858.59;5047039;28;20091;-85
2022/07/04 06:26:09;;;;;;;3.33;1.63;;;;;;;27.30;36.69;99864.50;5046919;28;20498;-87
2022/07/04 06:28:34;;;;;;;2.60;1.60;;;;;;;27.37;36.50;99868.44;5045887;28;20033;-88
2022/07/04 06:31:00;;;;;;;2.25;1.52;;;;;;;27.25;36.21;99840.50;5047216;28;20541;-87
2022/07/04 06:33:25;;;;;;;2.53;1.75;;;;;;;27.80;36.75;99864.84;5045447;28;20056;-87
2022/07/04 06:35:58;;;;;;;4.25;1.30;;;;;;;27.80;36.90;99831.47;5029079;28;20060;-86
2022/07/04 06:38:29;;;;;;;2.97;1.42;;;;;;;28.18;40.26;99865.34;5045654;28;20071;-87
2022/07/04 06:40:57;;;;;;;3.92;1.42;;;;;;;28.59;35.97;99858.16;5046920;28;20075;-85
2022/07/04 06:43:23;;;;;;;1.90;1.45;;;;;;;28.36;36.16;99862.84;5028799;28;20564;-86
2022/07/04 06:45:49;;;;;;;1.92;1.30;;;;;;;28.47;35.43;99864.63;5046337;28;20037;-86
2022/07/04 06:48:14;;;;;;;2.53;1.40;;;;;;;28.45;36.11;99867.47;5043317;28;20098;-86
2022/07/04 06:50:40;;;;;;;2.03;1.38;;;;;;;28.71;36.15;99845.38;5042337;28;20115;-85
2022/07/04 06:53:07;;;;;;;2.47;1.17;;;;;;;29.17;34.38;99827.66;5044274;28;20041;-85
2022/07/04 06:55:40;;;;;;;1.80;1.23;;;;;;;29.29;33.46;99833.88;5045357;28;20045;-86
2022/07/04 06:58:08;;;;;;;2.25;1.40;;;;;;;29.23;34.00;99858.88;5045921;28;20100;-86
2022/07/04 07:00:34;;;;;;;5.40;1.45;;;;;;;29.45;34.65;99823.31;5045686;28;20079;-86
2022/07/04 07:03:00;;;;;;;2.22;1.42;;;;;;;29.35;34.44;99832.44;5043938;28;20037;-84
2022/07/04 07:05:27;;;;;;;1.85;1.27;;;;;;;29.57;36.25;99832.19;5045781;28;20040;-86
2022/07/04 07:07:52;;;;;;;2.08;1.30;;;;;;;29.98;34.07;99822.06;5046793;28;20403;-86
2022/07/04 07:10:19;;;;;;;3.78;1.45;;;;;;;29.87;33.07;99834.94;5046751;28;20029;-86
2022/07/04 07:12:44;;;;;;;3.45;1.45;;;;;;;29.69;33.77;99818.44;5046830;28;20040;-86
2022/07/04 07:15:10;;;;;;;1.63;1.20;;;;;;;30.28;32.67;99830.16;5046081;28;20083;-86
2022/07/04 07:17:35;;;;;;;1.85;1.20;;;;;;;30.22;31.69;99833.47;5046573;28;20037;-85
2022/07/04 07:20:02;;;;;;;2.38;1.25;;;;;;;30.39;33.00;99808.25;5046307;28;20025;-87
2022/07/04 07:22:27;;;;;;;3.03;1.63;;;;;;;30.40;32.32;99796.38;5046568;28;20872;-86
2022/07/04 07:24:53;;;;;;;9.07;3.28;;;;;;;30.83;33.90;99816.66;5046361;28;20029;-87
2022/07/04 07:27:19;;;;;;;2.22;1.38;;;;;;;31.30;30.79;99828.47;5046331;28;20025;-88
2022/07/04 07:29:44;;;;;;;2.45;1.55;;;;;;;31.20;31.93;99798.53;5046357;28;20140;-88
2022/07/04 07:32:10;;;;;;;2.42;1.50;;;;;;;31.23;31.72;99803.69;5046397;28;20033;-93
2022/07/04 07:34:35;;;;;;;2.10;1.30;;;;;;;30.82;34.32;99784.16;5045990;28;20574;-87
2022/07/04 07:37:01;;;;;;;2.13;1.35;;;;;;;31.00;33.65;99823.19;5046557;28;20037;-86
2022/07/04 07:39:27;;;;;;;2.60;1.73;;;;;;;31.24;30.55;99824.47;5046888;28;20032;-86
2022/07/04 07:41:52;;;;;;;2.42;1.25;;;;;;;31.24;31.75;99795.34;5046392;28;21074;-86
2022/07/04 07:44:18;;;;;;;2.22;1.23;;;;;;;30.84;30.78;99787.56;5046757;28;20119;-87
2022/07/04 07:46:43;;;;;;;2.08;1.15;;;;;;;31.06;31.64;99808.09;5049844;28;20086;-87
2022/07/04 07:49:09;;;;;;;0.88;0.70;;;;;;;31.46;30.84;99809.53;5049866;28;20535;-88
2022/07/04 07:51:34;;;;;;;2.65;1.40;;;;;;;31.61;31.16;99811.78;5049894;28;20043;-86
2022/07/04 07:54:00;;;;;;;1.77;1.45;;;;;;;31.60;31.43;99797.28;5049584;28;20836;-87
2022/07/04 07:56:26;;;;;;;1.63;1.17;;;;;;;31.80;31.27;99802.56;5049818;28;20056;-86
2022/07/04 07:58:52;;;;;;;1.90;1.00;;;;;;;32.04;29.84;99813.66;5049982;28;20119;-87
2022/07/04 08:01:17;;;;;;;3.38;1.60;;;;;;;32.12;30.16;99812.91;5049335;28;20040;-87
2022/07/04 08:06:27;;;;;;;1.67;1.40;;;;;;;32.86;31.10;99807.88;5049186;28;20087;-86
2022/07/04 08:08:52;;;;;;;2.67;1.20;;;;;;;32.68;31.50;99785.28;5049131;28;20064;-87
2022/07/04 08:11:18;;;;;;;1.58;1.10;;;;;;;32.57;32.66;99797.31;5049648;28;20033;-87
2022/07/04 08:13:44;;;;;;;4.30;1.50;;;;;;;32.30;30.13;99789.16;5048335;28;20419;-87
2022/07/04 08:16:10;;;;;;;1.73;1.05;;;;;;;31.94;29.38;99782.88;5049665;28;20037;-86
2022/07/04 08:18:36;;;;;;;3.85;1.48;;;;;;;32.17;29.40;99793.31;5048373;28;20163;-87
2022/07/04 08:21:04;;;;;;;3.63;1.50;;;;;;;32.43;29.39;99796.03;5049656;28;20115;-87
2022/07/04 08:23:31;;;;;;;2.22;1.42;;;;;;;33.15;29.98;99785.59;5048779;28;20123;-86
2022/07/04 08:25:57;;;;;;;2.08;1.20;;;;;;;33.26;30.79;99778.13;5049631;28;20040;-87
2022/07/04 08:28:23;;;;;;;2.10;1.38;;;;;;;33.53;29.52;99774.22;5048698;28;20041;-87
2022/07/04 08:30:48;;;;;;;1.83;1.00;;;;;;;33.81;27.17;99761.09;5049142;28;20032;-87
2022/07/04 08:33:14;;;;;;;2.28;1.17;;;;;;;33.93;27.47;99764.34;5049347;28;20391;-88
2022/07/04 08:35:39;;;;;;;3.42;1.60;;;;;;;34.07;27.56;99779.19;5049051;28;20395;-88
2022/07/04 08:38:05;;;;;;;2.13;1.50;;;;;;;34.23;28.32;99781.91;5048235;28;20033;-86
2022/07/04 08:40:31;;;;;;;2.08;1.30;;;;;;;33.60;30.23;99775.28;5049562;28;20048;-86
2022/07/04 08:42:56;;;;;;;4.07;2.08;;;;;;;34.32;29.36;99770.97;5029997;28;20048;-85
2022/07/04 08:45:32;;;;;;;1.92;1.25;;;;;;;33.94;27.18;99787.06;5048076;28;20039;-86
2022/07/04 08:48:09;;;;;;;6.15;1.85;;;;;;;34.35;26.25;99785.13;5049181;28;20546;-88
2022/07/04 08:50:39;;;;;;;3.33;1.52;;;;;;;34.95;25.82;99771.94;5048334;28;20039;-87
2022/07/04 08:53:19;;;;;;;1.98;1.50;;;;;;;35.46;26.02;99791.50;5031122;28;20029;-88
2022/07/04 08:58:31;;;;;;;2.10;1.40;;;;;;;34.00;29.28;99780.91;5048031;28;20181;-87
2022/07/04 09:01:11;;;;;;;4.20;1.85;;;;;;;34.91;27.06;99781.53;5029939;28;20586;-89
2022/07/04 09:03:36;;;;;;;1.38;1.27;;;;;;;35.35;26.98;99774.63;5036970;28;20451;-88
2022/07/04 09:06:02;;;;;;;2.10;1.60;;;;;;;34.88;26.75;99746.28;5028537;28;20033;-88
2022/07/04 09:08:28;;;;;;;2.20;1.73;;;;;;;34.93;25.51;99760.31;5027902;28;20025;-87
2022/07/04 09:10:54;;;;;;;2.50;1.30;;;;;;;34.87;26.82;99753.66;5010307;28;20041;-86
2022/07/04 09:13:21;;;;;;;1.25;1.13;;;;;;;34.77;29.21;99748.41;5048325;28;20021;-86
2022/07/04 09:15:48;;;;;;;2.13;1.20;;;;;;;34.73;25.70;99762.59;5048181;28;20144;-87
2022/07/04 09:18:24;;;;;;;2.25;1.17;;;;;;;34.66;25.68;99753.38;5048265;28;20053;-88
2022/07/04 09:20:51;;;;;;;1.80;1.10;;;;;;;35.07;23.06;99761.44;5047510;28;20048;-87
2022/07/04 09:23:41;;;;;;;2.33;1.60;;;;;;;34.84;25.12;99756.75;5030199;28;20041;-88
2022/07/04 09:26:20;;;;;;;1.58;0.70;;;;;;;34.57;22.79;99733.38;5039525;28;20149;-89
2022/07/04 09:28:54;;;;;;;2.22;0.90;;;;;;;35.08;22.80;99768.59;5048038;28;20032;-88
2022/07/04 09:31:24;;;;;;;1.37;0.90;;;;;;;35.06;26.44;99746.00;5029774;28;20036;-88
2022/07/04 09:34:04;;;;;;;1.35;0.98;;;;;;;35.82;21.76;99747.03;5048337;28;20025;-87
2022/07/04 09:36:32;;;;;;;2.47;1.35;;;;;;;35.46;21.86;99736.66;5048080;28;20120;-88
2022/07/04 09:39:14;;;;;;;1.80;1.02;;;;;;;35.25;21.26;99730.97;5048187;28;20158;-87
2022/07/04 09:41:59;;;;;;;1.08;0.85;;;;;;;35.39;25.21;99752.16;5029865;28;20035;-86
2022/07/04 09:44:43;;;;;;;2.20;1.17;;;;;;;35.62;23.16;99730.19;5047781;28;20525;-88
2022/07/04 09:47:27;;;;;;;3.63;0.95;;;;;;;35.74;22.25;99733.31;5029912;28;20037;-88
2022/07/04 09:50:06;;;;;;;3.55;1.20;;;;;;;36.09;21.20;99743.84;5047846;28;20029;-88
2022/07/04 09:52:43;;;;;;;1.95;1.30;;;;;;;36.26;20.08;99730.81;5047854;28;20072;-88
2022/07/04 09:55:08;;;;;;;2.30;0.98;;;;;;;36.50;19.54;99738.75;5047620;28;20064;-88
2022/07/04 09:57:34;;;;;;;1.58;1.27;;;;;;;35.90;19.71;99707.69;5047132;28;20068;-88
2022/07/04 10:00:20;;;;;;;1.45;1.02;;;;;;;36.31;20.09;99742.06;5046409;28;20029;-89
2022/07/04 10:02:46;;;;;;;3.38;1.13;;;;;;;36.29;19.30;99747.75;5047006;28;20048;-87
2022/07/04 10:05:11;;;;;;;2.65;1.50;;;;;;;36.17;19.81;99725.38;5047211;28;20036;-88
2022/07/04 10:07:45;;;;;;;1.77;1.05;;;;;;;35.96;21.83;99708.78;5046153;28;20975;-88
2022/07/04 10:10:33;;;;;;;1.13;1.00;;;;;;;36.32;19.09;99741.03;5047223;28;20127;-85
2022/07/04 10:13:05;;;;;;;1.48;1.00;;;;;;;36.35;20.64;99732.44;5047365;28;20021;-87
2022/07/04 10:15:32;;;;;;;3.47;1.40;;;;;;;36.62;20.19;99728.13;5047081;28;20083;-86
2022/07/04 10:17:58;;;;;;;1.88;0.90;;;;;;;36.35;21.27;99692.09;5047696;28;20036;-89
2022/07/04 10:20:24;;;;;;;1.85;0.90;;;;;;;36.07;21.30;99711.09;5046492;28;20039;-90
2022/07/04 10:22:50;;;;;;;1.60;1.20;;;;;;;36.22;21.49;99722.06;5047302;28;20033;-90
2022/07/04 10:25:16;;;;;;;3.00;1.27;;;;;;;36.44;22.08;99706.56;5046900;28;20037;-88
2022/07/04 10:27:41;;;;;;;2.00;0.95;;;;;;;36.55;19.71;99718.97;5046871;28;20037;-87
2022/07/04 10:30:11;;;;;;;1.55;1.23;;;;;;;36.46;21.65;99701.72;5046814;28;20452;-87
2022/07/04 10:32:38;;;;;;;2.20;1.13;;;;;;;35.70;21.08;99715.56;5046659;28;20120;-89
2022/07/04 10:35:06;;;;;;;1.45;1.05;;;;;;;35.57;21.26;99696.97;5029029;28;20041;-89
2022/07/04 10:38:02;;;;;;;2.63;1.33;;;;;;;35.41;22.07;99719.06;5028136;28;20530;-88
2022/07/04 10:41:05;;;;;;;2.30;1.35;;;;;;;35.70;21.46;99714.69;5046692;28;20021;-88
2022/07/04 10:43:43;;;;;;;1.05;0.82;;;;;;;34.90;21.78;99711.34;4984891;28;20034;-87
2022/07/04 10:46:19;;;;;;;1.73;0.88;;;;;;;35.47;21.89;99710.94;5039705;28;20515;-88
2022/07/04 10:49:15;;;;;;;1.10;0.75;;;;;;;35.36;22.65;99686.72;5046177;28;20033;-88
2022/07/04 10:51:42;;;;;;;2.35;1.73;;;;;;;34.72;23.01;99698.72;5046428;28;20052;-87
2022/07/04 10:54:11;;;;;;;1.73;1.20;;;;;;;34.58;22.56;99666.63;5046167;28;20033;-86
2022/07/04 10:56:40;;;;;;;2.35;1.27;;;;;;;34.71;23.15;99674.25;5046760;28;20487;-86
2022/07/04 10:59:29;;;;;;;1.67;1.17;;;;;;;33.95;23.12;99682.94;5046541;28;20029;-86
2022/07/04 11:02:07;;;;;;;1.75;1.00;;;;;;;34.17;24.93;99685.94;5038284;28;20060;-85
2022/07/04 11:04:51;;;;;;;2.20;1.25;;;;;;;34.72;24.20;99700.63;5046719;28;20051;-86
2022/07/04 11:07:37;;;;;;;1.85;1.00;;;;;;;35.01;21.32;99677.19;5046003;28;20037;-86
2022/07/04 11:12:55;;;;;;;0.88;0.70;;;;;;;35.01;23.73;99683.53;5045665;28;20519;-88
2022/07/04 11:15:29;;;;;;;2.35;1.17;;;;;;;35.10;21.38;99679.69;5026607;28;20054;-87
2022/07/04 11:17:58;;;;;;;1.42;1.10;;;;;;;34.93;22.76;99632.38;5026065;28;20037;-87
2022/07/04 11:20:25;;;;;;;2.03;1.52;;;;;;;35.23;22.32;99654.41;5033824;28;20041;-87
2022/07/04 11:22:51;;;;;;;1.65;1.17;;;;;;;35.49;23.14;99669.63;5050506;28;20109;-86
2022/07/04 11:25:17;;;;;;;1.33;1.00;;;;;;;35.82;22.38;99661.97;5050151;28;20033;-87
2022/07/04 11:27:42;;;;;;;2.17;1.48;;;;;;;36.33;22.11;99643.88;5050599;28;20098;-85
2022/07/04 11:30:09;;;;;;;14.00;4.63;;;;;;;35.95;23.66;99664.06;5050519;28;20487;-86
2022/07/04 11:32:37;;;;;;;6.72;2.08;;;;;;;35.19;21.99;99639.38;5050053;28;20044;-85
2022/07/04 11:35:06;;;;;;;11.98;1.60;;;;;;;35.55;21.78;99663.41;5050481;28;20411;-87
2022/07/04 11:37:33;;;;;;;3.22;1.42;;;;;;;35.61;21.70;99668.16;5050137;28;20040;-86
2022/07/04 11:45:53;;;;;;;2.17;1.40;;;;;;;36.41;20.96;99643.78;5030346;28;20100;-86
2022/07/04 11:48:23;;;;;;;2.00;1.30;;;;;;;36.57;20.52;99631.72;5032470;28;20031;-86
2022/07/04 11:50:48;;;;;;;1.88;1.10;;;;;;;36.60;22.99;99638.72;5031887;28;20124;-85
2022/07/04 11:53:16;;;;;;;2.05;1.08;;;;;;;35.76;22.13;99609.69;5049709;28;20471;-86
2022/07/04 11:55:55;;;;;;;2.10;0.95;;;;;;;36.13;21.54;99643.59;5049701;28;20040;-84